Terminal Aerodrome Forecast
Issued by NWS

Home | Current Version | Previous Version | Text Only | Print | Product List | Glossary Off
Versions: 1 2 3 4 5 6 7 8 9 10 11 12 13 14 15 16 17 18 19 20 21 22 23 24 25 26 27

000
FTUS43 KABR 161200 AAA
TAFPIR
TAF AMD
KPIR 161228Z 1612/1712 03018G27KT P6SM -SN OVC040
      TEMPO 1612/1614 3SM -FZRASN OVC025
     FM161400 02020G30KT 5SM -SN OVC025
     FM161600 36018G27KT P6SM BKN035
     FM170000 36010KT P6SM SKC=

USA.gov is the U.S. government's official web portal to all federal, state and local government web resources and services.